Aérodrome :







RETROUVEZ-NOUS SUR...

 
LOGIN :

S'inscrire | Disclaimer

   EN    FR    IT 

 









Légende :    VFR   VFR Marginal   IFR   IFR Intensif   IFR Très Intensif
Visi : 
Plafond : 
>= 8 km
>= 3000ft
5 à 8 km
1000 à 3000 ft
1500m à 5 km
500 à 1000 ft
800 à 1500m
200 à 500 ft
< 800m
< 200 ft
Symboles :   Orages  Brouillard  Fortes neiges  Fortes précipitations  Vent > 20 kt






- Altitude de l'aérodrome : 72 ft
- Code IATA : YDF


CYDF - Deer Lake

DERNIER METAR :
  • 131300Z 22012G19KT 15SM SCT028 BKN090 BKN120 24/21 A2992 RMK SC4AC1AC2 SLP135 DENSITY ALT 1200FT

METARs EXPIRÉS :
  • 131200Z 21004KT 15SM FEW020 FEW045TCU BKN085 BKN120 21/20 A2993 RMK SF1TCU1AC3AC2 TCU NW SLP137 DENSITY ALT 900FT
  • 131100Z 00000KT 12SM FEW020 SCT040 BKN090 BKN120 21/20 A2994 RMK SF2SC2AC2AC1 CVCTV CLD EMBD SLP142 DENSITY ALT 800FT

TAF TAF CYDF
Valide du 13 à 11h jusqu'au 13 à 23h UTC


131038Z 1311/1323 VRB03KT P6SM BKN090
TEMPO 1311/1312 P6SM -SHRA
PROB30 1311/1312 2SM TSRA BR BKN015 OVC030CB
FM131200 23010KT P6SM -SHRA OVC050
TEMPO 1312/1314 P6SM NSW
FM131400 24012KT P6SM BKN050
TEMPO 1314/1323 P6SM -SHRA BKN020 RMK NXT FCST BY 131400Z
FIR CZQX / Amérique du Nord



MET'MAP, la Météo Aéronautique d'un coup d'oeil ! - Copyright ORBIFLY Décembre 2007 - Disclaimer

ORBIFLY MET'MAP TEAM :

Programmation & Développement : Alexandra Zaïnal
Sur une idée originale de : Baudouin d'Aumeries
Assistance à la programmation : Marc-Olivier Méhu
Soutien technique & logistique : Manuel Goepfert

Contact : metmap@orbifly.com




SOURCES & CREDITS :

   NOAA